Argyle, Canada
Current Conditions -  °F | °C
As of 5:00 AM on Sunday 26 Oct 2014 (Local Time) from CYQI Reporting Station
Broken Clouds Broken Clouds  
Wind Chill: 41°   Ceiling: 20000
Heat Index: 41°   Visibility: 15mi
Dew Point: 41°   Wind: 3mph
Humidity: 100%   Direction: 90°E
Pressure: 29.46"   Gusts: NA
Location:  43.8°N, 65.85°W
Report Text: CYQI 260800Z 09003KT 15SM BKN200 05/05 A2946 RMK CI7 SLP978
Loading
Personal Weather Stations






























Interactive Weather Map
Tropical Storm Tracking
New forecast layout! Learn more

10-Day Weather Forecast

Advertisements
Track Severe Weather on mobile